createdAt,value
2022-11-05T00:00:50.076Z,4.80
2022-11-05T00:03:36.989Z,4.93
2022-11-05T00:09:42.655Z,3.23
2022-11-05T00:12:33.797Z,3.80
2022-11-05T00:15:25.679Z,4.67
2022-11-05T00:17:55.940Z,4.07
2022-11-05T00:20:25.474Z,2.40
2022-11-05T00:23:27.399Z,3.90
2022-11-05T00:28:50.158Z,5.10
2022-11-05T00:31:20.167Z,3.50
2022-11-05T00:33:50.282Z,4.50
2022-11-05T00:36:21.432Z,1.80
2022-11-05T00:38:55.976Z,2.80
2022-11-05T00:41:28.625Z,2.97
2022-11-05T00:44:19.294Z,3.67
2022-11-05T00:46:50.078Z,3.13
2022-11-05T00:49:34.709Z,3.20
2022-11-05T00:52:18.741Z,3.90
2022-11-05T00:55:02.375Z,3.20
2022-11-05T00:57:37.411Z,3.43
2022-11-05T01:00:34.099Z,3.43
2022-11-05T01:03:17.880Z,3.03
2022-11-05T01:05:53.597Z,3.83
2022-11-05T01:08:25.717Z,3.13
2022-11-05T01:11:01.720Z,4.57
2022-11-05T01:13:31.919Z,2.57
2022-11-05T01:16:07.667Z,3.43
2022-11-05T01:18:38.417Z,4.50
2022-11-05T01:21:16.277Z,3.00
2022-11-05T01:23:51.473Z,3.23
2022-11-05T01:26:26.289Z,3.23
2022-11-05T01:28:56.637Z,4.10
2022-11-05T01:31:29.957Z,4.40
2022-11-05T01:33:59.390Z,3.43
2022-11-05T01:36:28.848Z,3.37
2022-11-05T01:39:00.735Z,3.13
2022-11-05T01:41:33.890Z,2.87
2022-11-05T01:44:05.737Z,2.67
2022-11-05T01:46:43.765Z,3.17
2022-11-05T01:49:19.011Z,2.90
2022-11-05T01:51:50.325Z,3.20
2022-11-05T01:54:21.384Z,3.90
2022-11-05T01:56:54.652Z,4.00
2022-11-05T01:59:34.628Z,3.47
2022-11-05T02:02:12.534Z,3.87
2022-11-05T02:04:45.345Z,3.40
2022-11-05T02:07:18.595Z,2.70
2022-11-05T02:09:50.781Z,2.17
2022-11-05T02:12:20.626Z,4.03
2022-11-05T02:14:49.573Z,2.07
2022-11-05T02:17:26.258Z,2.70
2022-11-05T02:20:10.488Z,2.50
2022-11-05T02:23:00.257Z,2.57
2022-11-05T02:25:49.693Z,3.10
2022-11-05T02:28:33.194Z,4.40
2022-11-05T02:31:07.805Z,3.77
2022-11-05T02:33:41.548Z,2.67
2022-11-05T02:36:31.443Z,2.33
2022-11-05T02:39:09.873Z,3.00
2022-11-05T02:41:44.031Z,2.17
2022-11-05T02:44:17.368Z,2.73
2022-11-05T02:46:51.638Z,2.47
2022-11-05T02:49:24.997Z,2.70
2022-11-05T02:51:57.733Z,2.30
2022-11-05T02:54:31.651Z,2.87
2022-11-05T02:57:01.430Z,3.23
2022-11-05T02:59:30.387Z,3.43
2022-11-05T03:02:02.019Z,2.27
2022-11-05T03:04:33.616Z,3.30
2022-11-05T03:07:20.854Z,4.37
2022-11-05T03:09:58.707Z,2.60
2022-11-05T03:12:34.235Z,2.93
2022-11-05T03:15:13.862Z,3.47
2022-11-05T03:17:47.818Z,2.00
2022-11-05T03:20:20.708Z,2.60
2022-11-05T03:22:51.772Z,2.53
2022-11-05T03:25:24.291Z,3.20
2022-11-05T03:27:59.411Z,2.10
2022-11-05T03:30:28.789Z,2.33
2022-11-05T03:33:03.698Z,2.90
2022-11-05T03:35:34.629Z,3.00
2022-11-05T03:38:05.551Z,3.97
2022-11-05T03:40:37.077Z,2.83
2022-11-05T03:43:08.422Z,5.30
2022-11-05T03:45:39.923Z,4.50
2022-11-05T03:48:14.151Z,2.67
2022-11-05T03:50:45.763Z,2.40
2022-11-05T03:53:23.445Z,3.30
2022-11-05T03:55:56.122Z,3.43
2022-11-05T03:58:27.000Z,2.70
2022-11-05T04:00:57.894Z,3.10
2022-11-05T04:03:36.464Z,3.30
2022-11-05T04:06:23.413Z,1.47
2022-11-05T04:09:09.808Z,1.47
2022-11-05T04:11:56.699Z,3.93
2022-11-05T04:14:27.480Z,2.73
2022-11-05T04:17:07.448Z,2.43
2022-11-05T04:19:55.967Z,2.53
2022-11-05T04:22:42.743Z,3.03
2022-11-05T04:25:12.585Z,2.90
2022-11-05T04:27:41.490Z,1.90
2022-11-05T04:30:18.915Z,3.47
2022-11-05T04:33:04.970Z,3.20
2022-11-05T04:35:39.096Z,4.90
2022-11-05T04:38:08.866Z,3.40
2022-11-05T04:40:41.460Z,3.50
2022-11-05T04:43:15.115Z,2.67
2022-11-05T04:45:45.369Z,2.20
2022-11-05T04:48:14.610Z,3.43
2022-11-05T04:50:47.166Z,1.97
2022-11-05T04:53:16.475Z,2.70
2022-11-05T04:55:46.037Z,2.33
2022-11-05T04:58:15.220Z,2.13
2022-11-05T05:00:45.180Z,2.60
2022-11-05T05:03:16.257Z,2.70
2022-11-05T05:05:46.963Z,2.27
2022-11-05T05:08:16.112Z,2.33
2022-11-05T05:10:45.380Z,3.07
2022-11-05T05:13:14.364Z,3.90
2022-11-05T05:15:43.899Z,2.87
2022-11-05T05:18:13.671Z,2.40
2022-11-05T05:21:00.101Z,3.33
2022-11-05T05:23:30.847Z,2.80
2022-11-05T05:26:01.452Z,3.87
2022-11-05T05:28:31.381Z,3.47
2022-11-05T05:31:01.171Z,2.20
2022-11-05T05:33:30.432Z,2.80
2022-11-05T05:36:00.801Z,4.20
2022-11-05T05:38:32.489Z,3.07
2022-11-05T05:41:02.276Z,3.73
2022-11-05T05:43:32.420Z,2.40
2022-11-05T05:46:03.818Z,3.80
2022-11-05T05:48:34.069Z,5.77
2022-11-05T05:51:03.594Z,3.83
2022-11-05T05:53:34.632Z,5.70
2022-11-05T05:56:04.934Z,2.90
2022-11-05T05:58:36.051Z,3.40
2022-11-05T06:01:06.184Z,3.87
2022-11-05T06:03:35.242Z,5.27
2022-11-05T06:06:06.092Z,2.40
2022-11-05T06:08:36.552Z,4.13
2022-11-05T06:11:06.657Z,4.10
2022-11-05T06:13:36.453Z,4.47
2022-11-05T06:16:07.230Z,5.40
2022-11-05T06:18:37.948Z,4.60
2022-11-05T06:21:07.474Z,2.87
2022-11-05T06:23:40.395Z,4.03
2022-11-05T06:26:13.142Z,5.03
2022-11-05T06:28:59.734Z,4.80
2022-11-05T06:31:45.884Z,4.93
2022-11-05T06:34:15.093Z,5.40
2022-11-05T06:36:47.029Z,3.50
2022-11-05T06:39:18.136Z,4.40
2022-11-05T06:42:11.814Z,3.50
2022-11-05T06:44:36.211Z,4.40
2022-11-05T06:47:06.325Z,4.60
2022-11-05T06:49:35.727Z,5.27
2022-11-05T06:52:05.326Z,5.70
2022-11-05T06:54:36.968Z,5.43
2022-11-05T06:57:06.692Z,6.63
2022-11-05T06:59:36.178Z,4.33
2022-11-05T07:02:07.464Z,5.80
2022-11-05T07:04:36.956Z,6.80
2022-11-05T07:07:05.877Z,5.93
2022-11-05T07:09:40.684Z,5.97
2022-11-05T07:12:10.006Z,6.30
2022-11-05T07:14:41.304Z,6.93
2022-11-05T07:17:10.920Z,7.30
2022-11-05T07:19:40.434Z,6.73
2022-11-05T07:22:11.036Z,6.57
2022-11-05T07:24:47.559Z,7.73
2022-11-05T07:27:18.838Z,5.30
2022-11-05T07:29:48.153Z,7.13
2022-11-05T07:32:19.162Z,7.13
2022-11-05T07:35:04.520Z,6.63
2022-11-05T07:37:35.806Z,4.77
2022-11-05T07:40:08.525Z,6.47
2022-11-05T07:42:42.023Z,6.93
2022-11-05T07:45:13.556Z,6.13
2022-11-05T07:47:52.059Z,6.03
2022-11-05T07:50:23.019Z,6.20
2022-11-05T07:55:50.126Z,3.50
2022-11-05T07:58:32.588Z,5.33
2022-11-05T08:01:04.138Z,4.60
2022-11-05T08:03:35.070Z,8.00
2022-11-05T08:06:08.316Z,6.07
2022-11-05T08:08:37.966Z,2.57
2022-11-05T08:11:10.861Z,5.70
2022-11-05T08:13:44.657Z,6.53
2022-11-05T08:16:13.777Z,4.73
2022-11-05T08:18:43.052Z,6.60
2022-11-05T08:21:14.038Z,3.73
2022-11-05T08:23:45.569Z,3.60
2022-11-05T08:26:16.192Z,3.67
2022-11-05T08:28:50.851Z,3.33
2022-11-05T08:31:23.866Z,4.03
2022-11-05T08:33:57.141Z,3.23
2022-11-05T08:36:29.039Z,3.13
2022-11-05T08:38:58.068Z,2.97
2022-11-05T08:41:28.811Z,2.30
2022-11-05T08:43:58.646Z,2.40
2022-11-05T08:46:31.770Z,3.70
2022-11-05T08:49:01.554Z,3.77
2022-11-05T08:51:30.813Z,3.77
2022-11-05T08:53:59.777Z,4.47
2022-11-05T08:56:30.257Z,3.07
2022-11-05T08:59:01.385Z,3.73
2022-11-05T09:01:32.537Z,3.37
2022-11-05T09:04:01.649Z,2.97
2022-11-05T09:06:30.718Z,4.47
2022-11-05T09:09:00.870Z,3.27
2022-11-05T09:12:09.851Z,3.20
2022-11-05T09:14:29.003Z,3.70
2022-11-05T09:17:00.829Z,3.57
2022-11-05T09:19:36.608Z,2.80
2022-11-05T09:22:09.642Z,2.70
2022-11-05T09:24:41.244Z,3.10
2022-11-05T09:27:16.270Z,2.73
2022-11-05T09:29:45.716Z,2.27
2022-11-05T09:32:18.857Z,2.93
2022-11-05T09:34:49.490Z,2.97
2022-11-05T09:37:28.798Z,3.60
2022-11-05T09:39:59.443Z,4.30
2022-11-05T09:42:32.965Z,3.30
2022-11-05T09:45:04.239Z,3.17
2022-11-05T09:47:37.156Z,3.60
2022-11-05T09:50:11.951Z,3.63
2022-11-05T09:52:41.348Z,3.93
2022-11-05T09:55:19.119Z,3.13
2022-11-05T09:57:53.458Z,2.40
2022-11-05T10:00:23.539Z,3.60
2022-11-05T10:03:04.716Z,4.43
2022-11-05T10:15:07.849Z,2.70
2022-11-05T10:17:56.451Z,2.60
2022-11-05T10:20:53.683Z,3.73
2022-11-05T10:23:26.130Z,2.20
2022-11-05T10:25:57.505Z,2.00
2022-11-05T10:28:31.460Z,3.40
2022-11-05T10:31:03.146Z,1.90
2022-11-05T10:33:49.812Z,2.10
2022-11-05T10:36:25.097Z,2.27
2022-11-05T10:38:57.940Z,1.73
2022-11-05T10:41:38.038Z,1.90
2022-11-05T10:44:18.656Z,2.13
2022-11-05T10:46:57.020Z,2.40
2022-11-05T10:49:33.350Z,2.97
2022-11-05T10:52:09.374Z,1.30
2022-11-05T10:54:39.355Z,2.40
2022-11-05T10:57:31.236Z,1.37
2022-11-05T11:00:15.682Z,2.10
2022-11-05T11:02:46.455Z,1.50
2022-11-05T11:05:22.199Z,2.50
2022-11-05T11:08:00.979Z,2.57
2022-11-05T11:10:32.267Z,2.60
2022-11-05T11:13:04.957Z,1.53
2022-11-05T11:15:37.885Z,2.27
2022-11-05T11:18:28.516Z,1.60
2022-11-05T11:21:09.925Z,2.37
2022-11-05T11:23:41.863Z,2.73
2022-11-05T11:26:12.743Z,2.10
2022-11-05T11:28:46.311Z,1.40
2022-11-05T11:31:19.958Z,1.30
2022-11-05T11:33:55.130Z,1.47
2022-11-05T11:36:30.041Z,1.43
2022-11-05T11:39:06.053Z,2.20
2022-11-05T11:41:36.245Z,1.50
2022-11-05T11:44:09.777Z,1.60
2022-11-05T11:46:43.988Z,1.67
2022-11-05T11:49:32.968Z,1.97
2022-11-05T11:52:04.339Z,2.43
2022-11-05T11:54:41.634Z,1.90
2022-11-05T11:57:23.416Z,1.63
2022-11-05T12:00:08.423Z,1.63
2022-11-05T12:03:11.282Z,1.80
2022-11-05T12:05:53.736Z,1.00
2022-11-05T12:08:45.985Z,1.60
2022-11-05T12:11:43.473Z,1.63
2022-11-05T12:14:21.332Z,1.80
2022-11-05T12:17:17.903Z,1.50
2022-11-05T12:20:18.144Z,1.77
2022-11-05T12:22:59.187Z,0.80
2022-11-05T12:25:30.524Z,2.20
2022-11-05T12:28:15.407Z,1.50
2022-11-05T12:30:51.382Z,1.47
2022-11-05T12:33:25.310Z,1.87
2022-11-05T12:36:10.275Z,1.03
2022-11-05T12:38:53.341Z,1.20
2022-11-05T12:41:29.035Z,2.20
2022-11-05T12:44:02.616Z,1.87
2022-11-05T12:46:41.211Z,1.57
2022-11-05T12:49:25.836Z,2.20
2022-11-05T12:52:10.303Z,2.43
2022-11-05T12:54:51.933Z,1.53
2022-11-05T12:57:37.188Z,1.77
2022-11-05T13:00:16.793Z,1.70
2022-11-05T13:03:05.272Z,1.93
2022-11-05T13:06:07.160Z,2.00
2022-11-05T13:09:01.186Z,1.67
2022-11-05T13:11:56.464Z,1.60
2022-11-05T13:15:31.398Z,1.80
2022-11-05T13:18:01.156Z,2.07
2022-11-05T13:23:20.892Z,1.00
2022-11-05T13:25:53.680Z,2.67
2022-11-05T13:28:36.878Z,1.70
2022-11-05T13:31:11.323Z,1.70
2022-11-05T13:33:45.412Z,2.50
2022-11-05T13:36:35.503Z,1.80
2022-11-05T13:39:20.424Z,1.13
2022-11-05T13:41:57.399Z,1.90
2022-11-05T13:44:47.348Z,2.40
2022-11-05T13:47:28.092Z,2.23
2022-11-05T13:50:24.370Z,1.40
2022-11-05T13:53:19.120Z,2.00
2022-11-05T13:56:10.812Z,1.93
2022-11-05T13:59:12.820Z,1.53
2022-11-05T14:01:49.129Z,1.30
2022-11-05T14:04:39.858Z,1.03
2022-11-05T14:07:28.300Z,1.20
2022-11-05T14:10:05.064Z,1.80
2022-11-05T14:12:41.223Z,1.23
2022-11-05T14:15:33.267Z,1.80
2022-11-05T14:18:13.881Z,1.90
2022-11-05T14:21:02.697Z,2.60
2022-11-05T14:24:02.956Z,1.63
2022-11-05T14:26:57.941Z,1.50
2022-11-05T14:29:41.500Z,1.53
2022-11-05T14:32:26.552Z,1.60
2022-11-05T14:35:17.524Z,2.30
2022-11-05T14:38:08.112Z,1.30
2022-11-05T14:40:47.010Z,1.60
2022-11-05T14:43:43.985Z,1.23
2022-11-05T14:46:25.314Z,1.50
2022-11-05T14:51:49.313Z,1.47
2022-11-05T14:54:44.349Z,1.70
2022-11-05T14:57:20.515Z,2.03
2022-11-05T15:00:18.198Z,2.80
2022-11-05T15:03:08.349Z,1.60
2022-11-05T15:05:43.438Z,2.50
2022-11-05T15:08:38.420Z,1.57
2022-11-05T15:11:35.277Z,1.80
2022-11-05T15:14:11.556Z,1.90
2022-11-05T15:16:52.061Z,2.57
2022-11-05T15:19:44.801Z,1.80
2022-11-05T15:22:30.495Z,1.63
2022-11-05T15:25:04.894Z,1.57
2022-11-05T15:28:06.234Z,2.70
2022-11-05T15:30:43.391Z,1.90
2022-11-05T15:33:29.353Z,3.30
2022-11-05T15:36:14.492Z,5.63
2022-11-05T15:39:27.312Z,1.70
2022-11-05T15:44:43.535Z,1.80
2022-11-05T15:47:33.406Z,2.77
2022-11-05T15:53:35.832Z,1.40
2022-11-05T15:56:00.278Z,3.07
2022-11-05T15:58:44.802Z,1.87
2022-11-05T16:01:28.137Z,1.77
2022-11-05T16:03:59.589Z,2.53
2022-11-05T16:06:39.298Z,2.30
2022-11-05T16:12:27.540Z,1.60
2022-11-05T16:20:50.478Z,1.70
2022-11-05T16:23:26.354Z,1.73
2022-11-05T16:25:59.363Z,0.97
2022-11-05T16:28:30.121Z,1.50
2022-11-05T16:31:05.235Z,1.57
2022-11-05T16:33:43.916Z,1.27
2022-11-05T16:36:16.004Z,1.50
2022-11-05T16:38:48.888Z,1.27
2022-11-05T16:41:23.356Z,1.30
2022-11-05T16:44:02.048Z,1.60
2022-11-05T16:46:50.637Z,1.53
2022-11-05T16:49:35.936Z,1.73
2022-11-05T16:52:10.859Z,1.90
2022-11-05T16:54:40.180Z,0.87
2022-11-05T16:57:22.085Z,1.70
2022-11-05T16:59:52.833Z,2.53
2022-11-05T17:02:26.205Z,1.70
2022-11-05T17:05:01.958Z,1.03
2022-11-05T17:07:49.330Z,1.30
2022-11-05T17:10:31.214Z,0.90
2022-11-05T17:13:36.644Z,1.80
2022-11-05T17:16:26.450Z,1.70
2022-11-05T17:19:08.877Z,1.00
2022-11-05T17:24:51.261Z,2.30
2022-11-05T17:27:33.387Z,1.50
2022-11-05T17:30:05.511Z,1.70
2022-11-05T17:32:41.906Z,1.30
2022-11-05T17:35:48.911Z,1.73
2022-11-05T17:42:00.700Z,1.40
2022-11-05T17:51:07.639Z,1.07
2022-11-05T17:53:56.142Z,3.00
2022-11-05T17:56:35.066Z,1.97
2022-11-05T17:59:25.192Z,2.00
2022-11-05T18:01:57.124Z,1.33
2022-11-05T18:04:42.231Z,1.60
2022-11-05T18:10:45.096Z,1.10
2022-11-05T18:26:32.697Z,1.80
2022-11-05T18:29:02.297Z,2.20
2022-11-05T18:34:51.990Z,1.30
2022-11-05T18:40:33.304Z,1.20
2022-11-05T18:48:58.017Z,2.10
2022-11-05T18:51:43.927Z,1.73
2022-11-05T18:54:25.363Z,1.73
2022-11-05T18:57:01.107Z,3.13
2022-11-05T18:59:50.470Z,1.73
2022-11-05T19:02:46.181Z,1.27
2022-11-05T19:05:37.254Z,2.40
2022-11-05T19:08:30.358Z,2.20
2022-11-05T19:11:30.516Z,1.80
2022-11-05T19:14:16.784Z,5.50
2022-11-05T19:16:51.587Z,6.10
2022-11-05T19:19:37.685Z,2.53
2022-11-05T19:22:12.678Z,3.40
2022-11-05T19:24:58.596Z,2.43
2022-11-05T19:27:39.657Z,4.77
2022-11-05T19:30:20.317Z,2.97
2022-11-05T19:32:54.526Z,5.43
2022-11-05T19:35:40.845Z,16.10
2022-11-05T19:38:18.849Z,10.70
2022-11-05T19:40:54.895Z,4.03
2022-11-05T19:43:42.570Z,2.67
2022-11-05T19:46:17.320Z,2.33
2022-11-05T19:49:08.172Z,2.47
2022-11-05T19:51:45.334Z,3.30
2022-11-05T19:54:21.289Z,3.50
2022-11-05T19:56:53.419Z,2.30
2022-11-05T19:59:35.698Z,2.27
2022-11-05T20:02:28.829Z,2.07
2022-11-05T20:05:30.970Z,1.50
2022-11-05T20:08:15.324Z,3.30
2022-11-05T20:10:53.688Z,3.30
2022-11-05T20:13:37.437Z,4.80
2022-11-05T20:21:58.648Z,2.23
2022-11-05T20:24:43.734Z,2.90
2022-11-05T20:27:32.220Z,2.30
2022-11-05T20:30:19.550Z,1.97
2022-11-05T20:41:35.230Z,1.83
2022-11-05T21:03:22.401Z,2.77
2022-11-05T21:06:15.725Z,1.93
2022-11-05T21:08:55.869Z,2.90
2022-11-05T21:17:43.229Z,2.00
2022-11-05T21:20:41.969Z,1.60
2022-11-05T21:23:40.099Z,2.10
2022-11-05T21:29:55.988Z,2.00
2022-11-05T21:35:48.804Z,2.30
2022-11-05T21:57:59.276Z,1.27
2022-11-05T22:00:41.569Z,1.73
2022-11-05T22:09:19.251Z,4.00
2022-11-05T22:12:16.311Z,1.70
2022-11-05T22:15:06.692Z,1.43
2022-11-05T22:17:46.520Z,1.07
2022-11-05T22:20:21.193Z,2.67
2022-11-05T22:23:05.381Z,1.93
2022-11-05T22:25:43.890Z,1.50
2022-11-05T22:31:45.410Z,1.90
2022-11-05T22:34:38.836Z,1.90
2022-11-05T22:37:18.012Z,2.03
2022-11-05T22:39:50.988Z,1.57
2022-11-05T22:42:28.056Z,1.83
2022-11-05T22:45:00.848Z,1.60
2022-11-05T22:47:30.814Z,1.70
2022-11-05T22:50:33.087Z,1.07
2022-11-05T22:53:08.092Z,3.20
2022-11-05T22:55:55.068Z,2.20
2022-11-05T22:58:47.718Z,2.30
2022-11-05T23:01:22.642Z,2.20
2022-11-05T23:03:53.216Z,1.87
2022-11-05T23:06:42.731Z,1.93
2022-11-05T23:09:37.247Z,2.00
2022-11-05T23:12:23.974Z,2.03
2022-11-05T23:14:56.313Z,1.97
2022-11-05T23:17:48.683Z,1.30
2022-11-05T23:20:36.113Z,1.80
2022-11-05T23:23:25.908Z,1.40
2022-11-05T23:25:58.645Z,1.50
2022-11-05T23:28:47.547Z,1.47
2022-11-05T23:31:33.866Z,2.30
2022-11-05T23:34:06.791Z,0.80
2022-11-05T23:36:53.758Z,1.63
2022-11-05T23:39:31.179Z,0.70
2022-11-05T23:42:19.249Z,3.00
2022-11-05T23:45:10.324Z,1.40
2022-11-05T23:48:09.966Z,1.10
2022-11-05T23:50:40.765Z,1.27
2022-11-05T23:53:10.741Z,1.30
2022-11-05T23:55:49.693Z,2.40
2022-11-05T23:58:25.444Z,2.37
